sensor_id;sensor_type;location;lat;lon;timestamp;temperature;humidity
35559;DHT22;21661;50.794;-1.066;2022-12-01T00:01:58;6.80;99.90
35559;DHT22;21661;50.794;-1.066;2022-12-01T00:04:23;6.80;99.90
35559;DHT22;21661;50.794;-1.066;2022-12-01T00:06:49;6.70;99.90
35559;DHT22;21661;50.794;-1.066;2022-12-01T00:09:14;6.70;99.90
35559;DHT22;21661;50.794;-1.066;2022-12-01T00:11:59;6.70;99.90
35559;DHT22;21661;50.794;-1.066;2022-12-01T00:14:24;6.70;99.90
35559;DHT22;21661;50.794;-1.066;2022-12-01T00:16:49;6.70;99.90
35559;DHT22;21661;50.794;-1.066;2022-12-01T00:19:15;6.60;99.90
35559;DHT22;21661;50.794;-1.066;2022-12-01T00:21:42;6.60;99.90
35559;DHT22;21661;50.794;-1.066;2022-12-01T00:24:08;6.60;99.90
35559;DHT22;21661;50.794;-1.066;2022-12-01T00:26:33;6.60;99.90
35559;DHT22;21661;50.794;-1.066;2022-12-01T00:29:01;6.60;99.90
35559;DHT22;21661;50.794;-1.066;2022-12-01T00:31:26;6.60;99.90
35559;DHT22;21661;50.794;-1.066;2022-12-01T00:33:52;6.50;99.90
35559;DHT22;21661;50.794;-1.066;2022-12-01T00:36:18;6.50;99.90
35559;DHT22;21661;50.794;-1.066;2022-12-01T00:38:44;6.50;99.90
35559;DHT22;21661;50.794;-1.066;2022-12-01T00:41:09;6.50;99.90
35559;DHT22;21661;50.794;-1.066;2022-12-01T00:43:35;6.50;99.90
35559;DHT22;21661;50.794;-1.066;2022-12-01T00:46:00;6.50;99.90
35559;DHT22;21661;50.794;-1.066;2022-12-01T00:48:26;6.50;99.90
35559;DHT22;21661;50.794;-1.066;2022-12-01T00:50:52;6.50;99.90
35559;DHT22;21661;50.794;-1.066;2022-12-01T00:53:17;6.50;99.90
35559;DHT22;21661;50.794;-1.066;2022-12-01T00:55:43;6.50;99.90
35559;DHT22;21661;50.794;-1.066;2022-12-01T00:58:09;6.50;99.90
35559;DHT22;21661;50.794;-1.066;2022-12-01T01:00:34;6.50;99.90
35559;DHT22;21661;50.794;-1.066;2022-12-01T01:03:07;6.40;99.90
35559;DHT22;21661;50.794;-1.066;2022-12-01T01:05:36;6.40;99.90
35559;DHT22;21661;50.794;-1.066;2022-12-01T01:08:05;6.40;99.90
35559;DHT22;21661;50.794;-1.066;2022-12-01T01:10:31;6.40;99.90
35559;DHT22;21661;50.794;-1.066;2022-12-01T01:12:56;6.50;99.90
35559;DHT22;21661;50.794;-1.066;2022-12-01T01:15:22;6.40;99.90
35559;DHT22;21661;50.794;-1.066;2022-12-01T01:17:47;6.40;99.90
35559;DHT22;21661;50.794;-1.066;2022-12-01T01:20:13;6.40;99.90
35559;DHT22;21661;50.794;-1.066;2022-12-01T01:22:38;6.40;99.90
35559;DHT22;21661;50.794;-1.066;2022-12-01T01:25:04;6.40;99.90
35559;DHT22;21661;50.794;-1.066;2022-12-01T01:27:29;6.40;99.90
35559;DHT22;21661;50.794;-1.066;2022-12-01T01:29:55;6.30;99.90
35559;DHT22;21661;50.794;-1.066;2022-12-01T01:32:20;6.30;99.90
35559;DHT22;21661;50.794;-1.066;2022-12-01T01:34:46;6.30;99.90
35559;DHT22;21661;50.794;-1.066;2022-12-01T01:37:11;6.20;99.90
35559;DHT22;21661;50.794;-1.066;2022-12-01T01:39:37;6.20;99.90
35559;DHT22;21661;50.794;-1.066;2022-12-01T01:42:02;6.20;99.90
35559;DHT22;21661;50.794;-1.066;2022-12-01T01:47:13;6.20;99.90
35559;DHT22;21661;50.794;-1.066;2022-12-01T01:49:39;6.30;99.90
35559;DHT22;21661;50.794;-1.066;2022-12-01T01:52:05;6.30;99.90
35559;DHT22;21661;50.794;-1.066;2022-12-01T01:54:32;6.30;99.90
35559;DHT22;21661;50.794;-1.066;2022-12-01T01:56:59;6.30;99.90
35559;DHT22;21661;50.794;-1.066;2022-12-01T01:59:27;6.30;99.90
35559;DHT22;21661;50.794;-1.066;2022-12-01T02:02:01;6.30;99.90
35559;DHT22;21661;50.794;-1.066;2022-12-01T02:04:27;6.30;99.90
35559;DHT22;21661;50.794;-1.066;2022-12-01T02:06:53;6.20;99.90
35559;DHT22;21661;50.794;-1.066;2022-12-01T02:09:19;6.20;99.90
35559;DHT22;21661;50.794;-1.066;2022-12-01T02:14:44;6.20;99.90
35559;DHT22;21661;50.794;-1.066;2022-12-01T02:17:21;6.10;99.90
35559;DHT22;21661;50.794;-1.066;2022-12-01T02:25:16;6.10;99.90
35559;DHT22;21661;50.794;-1.066;2022-12-01T02:30:09;6.20;99.90
35559;DHT22;21661;50.794;-1.066;2022-12-01T02:35:31;6.20;99.90
35559;DHT22;21661;50.794;-1.066;2022-12-01T02:43:02;6.20;99.90
35559;DHT22;21661;50.794;-1.066;2022-12-01T02:45:38;6.20;99.90
35559;DHT22;21661;50.794;-1.066;2022-12-01T02:48:11;6.30;99.90
35559;DHT22;21661;50.794;-1.066;2022-12-01T02:50:38;6.30;99.90
35559;DHT22;21661;50.794;-1.066;2022-12-01T02:53:05;6.30;99.90
35559;DHT22;21661;50.794;-1.066;2022-12-01T02:55:31;6.30;99.90
35559;DHT22;21661;50.794;-1.066;2022-12-01T02:57:57;6.30;99.90
35559;DHT22;21661;50.794;-1.066;2022-12-01T03:00:22;6.30;99.90
35559;DHT22;21661;50.794;-1.066;2022-12-01T03:05:50;6.30;99.90
35559;DHT22;21661;50.794;-1.066;2022-12-01T03:11:01;6.30;99.90
35559;DHT22;21661;50.794;-1.066;2022-12-01T03:21:12;6.30;99.90
35559;DHT22;21661;50.794;-1.066;2022-12-01T03:23:43;6.30;99.90
35559;DHT22;21661;50.794;-1.066;2022-12-01T03:26:10;6.30;99.90
35559;DHT22;21661;50.794;-1.066;2022-12-01T03:28:45;6.20;99.90
35559;DHT22;21661;50.794;-1.066;2022-12-01T03:31:13;6.30;99.90
35559;DHT22;21661;50.794;-1.066;2022-12-01T03:33:45;6.20;99.90
35559;DHT22;21661;50.794;-1.066;2022-12-01T03:36:14;6.20;99.90
35559;DHT22;21661;50.794;-1.066;2022-12-01T03:38:42;6.20;99.90
35559;DHT22;21661;50.794;-1.066;2022-12-01T03:41:11;6.10;99.90
35559;DHT22;21661;50.794;-1.066;2022-12-01T03:43:40;6.20;99.90
35559;DHT22;21661;50.794;-1.066;2022-12-01T03:48:51;6.30;99.90
35559;DHT22;21661;50.794;-1.066;2022-12-01T03:54:15;6.40;99.90
35559;DHT22;21661;50.794;-1.066;2022-12-01T03:56:43;6.30;99.90
35559;DHT22;21661;50.794;-1.066;2022-12-01T03:59:10;6.40;99.90
35559;DHT22;21661;50.794;-1.066;2022-12-01T04:01:36;6.40;99.90
35559;DHT22;21661;50.794;-1.066;2022-12-01T04:04:06;6.40;99.90
35559;DHT22;21661;50.794;-1.066;2022-12-01T04:06:32;6.40;99.90
35559;DHT22;21661;50.794;-1.066;2022-12-01T04:08:57;6.40;99.90
35559;DHT22;21661;50.794;-1.066;2022-12-01T04:11:23;6.40;99.90
35559;DHT22;21661;50.794;-1.066;2022-12-01T04:14:07;6.40;99.90
35559;DHT22;21661;50.794;-1.066;2022-12-01T04:16:32;6.50;99.90
35559;DHT22;21661;50.794;-1.066;2022-12-01T04:18:58;6.40;99.90
35559;DHT22;21661;50.794;-1.066;2022-12-01T04:21:23;6.40;99.90
35559;DHT22;21661;50.794;-1.066;2022-12-01T04:23:49;6.40;99.90
35559;DHT22;21661;50.794;-1.066;2022-12-01T04:26:27;6.50;99.90
35559;DHT22;21661;50.794;-1.066;2022-12-01T04:28:53;6.50;99.90
35559;DHT22;21661;50.794;-1.066;2022-12-01T04:31:18;6.50;99.90
35559;DHT22;21661;50.794;-1.066;2022-12-01T04:33:44;6.40;99.90
35559;DHT22;21661;50.794;-1.066;2022-12-01T04:36:09;6.40;99.90
35559;DHT22;21661;50.794;-1.066;2022-12-01T04:38:35;6.40;99.90
35559;DHT22;21661;50.794;-1.066;2022-12-01T04:41:06;6.40;99.90
35559;DHT22;21661;50.794;-1.066;2022-12-01T04:43:32;6.40;99.90
35559;DHT22;21661;50.794;-1.066;2022-12-01T04:45:58;6.40;99.90
35559;DHT22;21661;50.794;-1.066;2022-12-01T04:48:23;6.50;99.90
35559;DHT22;21661;50.794;-1.066;2022-12-01T04:50:48;6.40;99.90
35559;DHT22;21661;50.794;-1.066;2022-12-01T04:53:14;6.40;99.90
35559;DHT22;21661;50.794;-1.066;2022-12-01T04:55:39;6.40;99.90
35559;DHT22;21661;50.794;-1.066;2022-12-01T04:58:05;6.30;99.90
35559;DHT22;21661;50.794;-1.066;2022-12-01T05:00:31;6.30;99.90
35559;DHT22;21661;50.794;-1.066;2022-12-01T05:02:57;6.30;99.90
35559;DHT22;21661;50.794;-1.066;2022-12-01T05:05:23;6.30;99.90
35559;DHT22;21661;50.794;-1.066;2022-12-01T05:07:48;6.30;99.90
35559;DHT22;21661;50.794;-1.066;2022-12-01T05:10:14;6.30;99.90
35559;DHT22;21661;50.794;-1.066;2022-12-01T05:12:39;6.30;99.90
35559;DHT22;21661;50.794;-1.066;2022-12-01T05:15:06;6.30;99.90
35559;DHT22;21661;50.794;-1.066;2022-12-01T05:17:31;6.30;99.90
35559;DHT22;21661;50.794;-1.066;2022-12-01T05:19:57;6.30;99.90
35559;DHT22;21661;50.794;-1.066;2022-12-01T05:22:41;6.30;99.90
35559;DHT22;21661;50.794;-1.066;2022-12-01T05:25:06;6.30;99.90
35559;DHT22;21661;50.794;-1.066;2022-12-01T05:27:32;6.30;99.90
35559;DHT22;21661;50.794;-1.066;2022-12-01T05:29:57;6.30;99.90
35559;DHT22;21661;50.794;-1.066;2022-12-01T05:32:23;6.30;99.90
35559;DHT22;21661;50.794;-1.066;2022-12-01T05:34:48;6.30;99.90
35559;DHT22;21661;50.794;-1.066;2022-12-01T05:37:14;6.30;99.90
35559;DHT22;21661;50.794;-1.066;2022-12-01T05:39:39;6.30;99.90
35559;DHT22;21661;50.794;-1.066;2022-12-01T05:42:05;6.40;99.90
35559;DHT22;21661;50.794;-1.066;2022-12-01T05:44:30;6.40;99.90
35559;DHT22;21661;50.794;-1.066;2022-12-01T05:46:56;6.40;99.90
35559;DHT22;21661;50.794;-1.066;2022-12-01T05:49:21;6.40;99.90
35559;DHT22;21661;50.794;-1.066;2022-12-01T05:51:47;6.40;99.90
35559;DHT22;21661;50.794;-1.066;2022-12-01T05:54:12;6.50;99.90
35559;DHT22;21661;50.794;-1.066;2022-12-01T05:56:38;6.60;99.90
35559;DHT22;21661;50.794;-1.066;2022-12-01T05:59:03;6.70;99.90
35559;DHT22;21661;50.794;-1.066;2022-12-01T06:01:28;6.70;99.90
35559;DHT22;21661;50.794;-1.066;2022-12-01T06:03:54;6.80;99.90
35559;DHT22;21661;50.794;-1.066;2022-12-01T06:06:19;6.80;99.90
35559;DHT22;21661;50.794;-1.066;2022-12-01T06:08:45;6.80;99.90
35559;DHT22;21661;50.794;-1.066;2022-12-01T06:11:10;6.80;99.90
35559;DHT22;21661;50.794;-1.066;2022-12-01T06:13:36;6.70;99.90
35559;DHT22;21661;50.794;-1.066;2022-12-01T06:16:02;6.80;99.90
35559;DHT22;21661;50.794;-1.066;2022-12-01T06:18:29;6.80;99.90
35559;DHT22;21661;50.794;-1.066;2022-12-01T06:20:55;6.80;99.90
35559;DHT22;21661;50.794;-1.066;2022-12-01T06:23:20;6.80;99.90
35559;DHT22;21661;50.794;-1.066;2022-12-01T06:25:46;6.80;99.90
35559;DHT22;21661;50.794;-1.066;2022-12-01T06:28:11;6.80;99.90
35559;DHT22;21661;50.794;-1.066;2022-12-01T06:30:37;6.90;99.90
35559;DHT22;21661;50.794;-1.066;2022-12-01T06:33:02;6.90;99.90
35559;DHT22;21661;50.794;-1.066;2022-12-01T06:35:28;6.80;99.90
35559;DHT22;21661;50.794;-1.066;2022-12-01T06:37:53;6.80;99.90
35559;DHT22;21661;50.794;-1.066;2022-12-01T06:40:19;6.90;99.90
35559;DHT22;21661;50.794;-1.066;2022-12-01T06:42:44;6.90;99.90
35559;DHT22;21661;50.794;-1.066;2022-12-01T06:45:10;6.90;99.90
35559;DHT22;21661;50.794;-1.066;2022-12-01T06:47:36;7.00;99.90
35559;DHT22;21661;50.794;-1.066;2022-12-01T06:50:02;6.90;99.90
35559;DHT22;21661;50.794;-1.066;2022-12-01T06:52:28;6.90;99.90
35559;DHT22;21661;50.794;-1.066;2022-12-01T06:54:54;6.90;99.90
35559;DHT22;21661;50.794;-1.066;2022-12-01T06:57:19;6.80;99.90
35559;DHT22;21661;50.794;-1.066;2022-12-01T06:59:45;6.90;99.90
35559;DHT22;21661;50.794;-1.066;2022-12-01T07:02:10;6.90;99.90
35559;DHT22;21661;50.794;-1.066;2022-12-01T07:04:36;6.80;99.90
35559;DHT22;21661;50.794;-1.066;2022-12-01T07:07:02;6.80;99.90
35559;DHT22;21661;50.794;-1.066;2022-12-01T07:09:28;6.80;99.90
35559;DHT22;21661;50.794;-1.066;2022-12-01T07:11:54;6.80;99.90
35559;DHT22;21661;50.794;-1.066;2022-12-01T07:14:21;6.80;99.90
35559;DHT22;21661;50.794;-1.066;2022-12-01T07:16:47;6.90;99.90
35559;DHT22;21661;50.794;-1.066;2022-12-01T07:19:13;6.90;99.90
35559;DHT22;21661;50.794;-1.066;2022-12-01T07:21:39;6.80;99.90
35559;DHT22;21661;50.794;-1.066;2022-12-01T07:24:05;6.80;99.90
35559;DHT22;21661;50.794;-1.066;2022-12-01T07:26:31;6.80;99.90
35559;DHT22;21661;50.794;-1.066;2022-12-01T07:28:56;6.80;99.90
35559;DHT22;21661;50.794;-1.066;2022-12-01T07:31:22;6.80;99.90
35559;DHT22;21661;50.794;-1.066;2022-12-01T07:33:47;6.80;99.90
35559;DHT22;21661;50.794;-1.066;2022-12-01T07:36:13;6.80;99.90
35559;DHT22;21661;50.794;-1.066;2022-12-01T07:38:39;6.90;99.90
35559;DHT22;21661;50.794;-1.066;2022-12-01T07:41:11;6.80;99.90
35559;DHT22;21661;50.794;-1.066;2022-12-01T07:43:37;6.70;99.90
35559;DHT22;21661;50.794;-1.066;2022-12-01T07:48:40;6.60;99.90
35559;DHT22;21661;50.794;-1.066;2022-12-01T07:51:07;6.60;99.90
35559;DHT22;21661;50.794;-1.066;2022-12-01T07:53:33;6.70;99.90
35559;DHT22;21661;50.794;-1.066;2022-12-01T07:55:59;6.70;99.90
35559;DHT22;21661;50.794;-1.066;2022-12-01T07:58:24;6.70;99.90
35559;DHT22;21661;50.794;-1.066;2022-12-01T08:00:50;6.70;99.90
35559;DHT22;21661;50.794;-1.066;2022-12-01T08:03:16;6.60;99.90
35559;DHT22;21661;50.794;-1.066;2022-12-01T08:05:42;6.60;99.90
35559;DHT22;21661;50.794;-1.066;2022-12-01T08:08:07;6.60;99.90
35559;DHT22;21661;50.794;-1.066;2022-12-01T08:10:33;6.50;99.90
35559;DHT22;21661;50.794;-1.066;2022-12-01T08:12:58;6.50;99.90
35559;DHT22;21661;50.794;-1.066;2022-12-01T08:15:24;6.50;99.90
35559;DHT22;21661;50.794;-1.066;2022-12-01T08:17:49;6.60;99.90
35559;DHT22;21661;50.794;-1.066;2022-12-01T08:20:15;6.50;99.90
35559;DHT22;21661;50.794;-1.066;2022-12-01T08:22:40;6.50;99.90
35559;DHT22;21661;50.794;-1.066;2022-12-01T08:25:06;6.40;99.90
35559;DHT22;21661;50.794;-1.066;2022-12-01T08:27:32;6.40;99.90
35559;DHT22;21661;50.794;-1.066;2022-12-01T08:29:57;6.40;99.90
35559;DHT22;21661;50.794;-1.066;2022-12-01T08:32:23;6.40;99.90
35559;DHT22;21661;50.794;-1.066;2022-12-01T08:34:48;6.40;99.90
35559;DHT22;21661;50.794;-1.066;2022-12-01T08:37:14;6.50;99.90
35559;DHT22;21661;50.794;-1.066;2022-12-01T08:39:39;6.50;99.90
35559;DHT22;21661;50.794;-1.066;2022-12-01T08:42:05;6.50;99.90
35559;DHT22;21661;50.794;-1.066;2022-12-01T08:44:30;6.50;99.90
35559;DHT22;21661;50.794;-1.066;2022-12-01T08:46:56;6.50;99.90
35559;DHT22;21661;50.794;-1.066;2022-12-01T08:49:21;6.50;99.90
35559;DHT22;21661;50.794;-1.066;2022-12-01T08:51:47;6.50;99.90
35559;DHT22;21661;50.794;-1.066;2022-12-01T08:54:12;6.50;99.90
35559;DHT22;21661;50.794;-1.066;2022-12-01T08:56:39;6.40;99.90
35559;DHT22;21661;50.794;-1.066;2022-12-01T08:59:05;6.50;99.90
35559;DHT22;21661;50.794;-1.066;2022-12-01T09:01:31;6.50;99.90
35559;DHT22;21661;50.794;-1.066;2022-12-01T09:03:57;6.60;99.90
35559;DHT22;21661;50.794;-1.066;2022-12-01T09:06:39;6.60;99.90
35559;DHT22;21661;50.794;-1.066;2022-12-01T09:09:06;6.60;99.90
35559;DHT22;21661;50.794;-1.066;2022-12-01T09:11:32;6.60;99.90
35559;DHT22;21661;50.794;-1.066;2022-12-01T09:13:57;6.60;99.90
35559;DHT22;21661;50.794;-1.066;2022-12-01T09:16:23;6.60;99.90
35559;DHT22;21661;50.794;-1.066;2022-12-01T09:18:48;6.60;99.90
35559;DHT22;21661;50.794;-1.066;2022-12-01T09:21:21;6.60;99.90
35559;DHT22;21661;50.794;-1.066;2022-12-01T09:23:47;6.70;99.90
35559;DHT22;21661;50.794;-1.066;2022-12-01T09:26:13;6.80;99.90
35559;DHT22;21661;50.794;-1.066;2022-12-01T09:28:43;6.80;99.90
35559;DHT22;21661;50.794;-1.066;2022-12-01T09:31:09;6.80;99.90
35559;DHT22;21661;50.794;-1.066;2022-12-01T09:33:35;6.90;99.90
35559;DHT22;21661;50.794;-1.066;2022-12-01T09:36:00;6.90;99.90
35559;DHT22;21661;50.794;-1.066;2022-12-01T09:38:29;6.90;99.90
35559;DHT22;21661;50.794;-1.066;2022-12-01T09:40:55;7.00;99.90
35559;DHT22;21661;50.794;-1.066;2022-12-01T09:43:24;7.10;99.90
35559;DHT22;21661;50.794;-1.066;2022-12-01T09:45:51;7.10;99.90
35559;DHT22;21661;50.794;-1.066;2022-12-01T09:48:23;7.20;99.90
35559;DHT22;21661;50.794;-1.066;2022-12-01T09:50:49;7.30;99.90
35559;DHT22;21661;50.794;-1.066;2022-12-01T09:53:16;7.40;99.90
35559;DHT22;21661;50.794;-1.066;2022-12-01T09:55:44;7.40;99.90
35559;DHT22;21661;50.794;-1.066;2022-12-01T09:58:18;7.40;99.90
35559;DHT22;21661;50.794;-1.066;2022-12-01T10:00:44;7.60;99.90
35559;DHT22;21661;50.794;-1.066;2022-12-01T10:05:48;7.70;99.90
35559;DHT22;21661;50.794;-1.066;2022-12-01T10:08:15;7.80;99.90
35559;DHT22;21661;50.794;-1.066;2022-12-01T10:10:44;7.90;99.90
35559;DHT22;21661;50.794;-1.066;2022-12-01T10:13:20;7.90;99.90
35559;DHT22;21661;50.794;-1.066;2022-12-01T10:18:43;8.00;99.90
35559;DHT22;21661;50.794;-1.066;2022-12-01T10:34:15;8.00;99.90
35559;DHT22;21661;50.794;-1.066;2022-12-01T10:36:41;8.00;99.90
35559;DHT22;21661;50.794;-1.066;2022-12-01T10:39:09;8.00;99.90
35559;DHT22;21661;50.794;-1.066;2022-12-01T10:41:38;8.00;99.90
35559;DHT22;21661;50.794;-1.066;2022-12-01T10:44:04;7.90;99.90
35559;DHT22;21661;50.794;-1.066;2022-12-01T10:46:43;7.90;99.90
35559;DHT22;21661;50.794;-1.066;2022-12-01T10:49:11;7.80;99.90
35559;DHT22;21661;50.794;-1.066;2022-12-01T10:51:55;7.70;99.90
35559;DHT22;21661;50.794;-1.066;2022-12-01T10:54:22;7.80;99.90
35559;DHT22;21661;50.794;-1.066;2022-12-01T10:56:48;7.80;99.90
35559;DHT22;21661;50.794;-1.066;2022-12-01T10:59:25;7.80;99.90
35559;DHT22;21661;50.794;-1.066;2022-12-01T11:01:52;7.80;99.90
35559;DHT22;21661;50.794;-1.066;2022-12-01T11:06:56;7.70;99.90
35559;DHT22;21661;50.794;-1.066;2022-12-01T11:09:26;7.70;99.90
35559;DHT22;21661;50.794;-1.066;2022-12-01T11:11:56;7.60;99.90
35559;DHT22;21661;50.794;-1.066;2022-12-01T11:14:24;7.60;99.90
35559;DHT22;21661;50.794;-1.066;2022-12-01T11:16:51;7.60;99.90
35559;DHT22;21661;50.794;-1.066;2022-12-01T11:21:51;7.70;99.90
35559;DHT22;21661;50.794;-1.066;2022-12-01T11:26:57;7.80;99.90
35559;DHT22;21661;50.794;-1.066;2022-12-01T11:31:54;7.80;99.90
35559;DHT22;21661;50.794;-1.066;2022-12-01T11:36:46;7.90;99.90
35559;DHT22;21661;50.794;-1.066;2022-12-01T11:39:23;7.90;99.90
35559;DHT22;21661;50.794;-1.066;2022-12-01T11:41:56;8.00;99.90
35559;DHT22;21661;50.794;-1.066;2022-12-01T11:46:46;8.00;99.90
35559;DHT22;21661;50.794;-1.066;2022-12-01T11:49:21;8.10;99.90
35559;DHT22;21661;50.794;-1.066;2022-12-01T11:51:47;8.10;99.90
35559;DHT22;21661;50.794;-1.066;2022-12-01T11:54:21;8.20;99.90
35559;DHT22;21661;50.794;-1.066;2022-12-01T11:56:48;8.20;99.90
35559;DHT22;21661;50.794;-1.066;2022-12-01T11:59:25;8.20;99.90
35559;DHT22;21661;50.794;-1.066;2022-12-01T12:12:57;8.40;99.90
35559;DHT22;21661;50.794;-1.066;2022-12-01T12:26:19;8.60;99.90
35559;DHT22;21661;50.794;-1.066;2022-12-01T12:29:01;8.60;99.90
35559;DHT22;21661;50.794;-1.066;2022-12-01T12:31:37;8.60;99.90
35559;DHT22;21661;50.794;-1.066;2022-12-01T12:48:04;8.80;99.90
35559;DHT22;21661;50.794;-1.066;2022-12-01T12:53:03;8.80;99.90
35559;DHT22;21661;50.794;-1.066;2022-12-01T12:55:36;8.80;99.90
35559;DHT22;21661;50.794;-1.066;2022-12-01T12:58:25;8.80;99.90
35559;DHT22;21661;50.794;-1.066;2022-12-01T13:01:17;8.90;99.90
35559;DHT22;21661;50.794;-1.066;2022-12-01T13:03:50;8.90;99.90
35559;DHT22;21661;50.794;-1.066;2022-12-01T13:09:03;8.90;99.90
35559;DHT22;21661;50.794;-1.066;2022-12-01T13:11:45;8.90;99.90
35559;DHT22;21661;50.794;-1.066;2022-12-01T13:16:43;8.90;99.90
35559;DHT22;21661;50.794;-1.066;2022-12-01T13:21:42;8.90;99.90
35559;DHT22;21661;50.794;-1.066;2022-12-01T13:24:12;9.00;99.90
35559;DHT22;21661;50.794;-1.066;2022-12-01T13:26:39;9.00;99.90
35559;DHT22;21661;50.794;-1.066;2022-12-01T13:29:07;9.00;99.90
35559;DHT22;21661;50.794;-1.066;2022-12-01T13:31:45;9.10;99.90
35559;DHT22;21661;50.794;-1.066;2022-12-01T13:37:00;9.10;99.90
35559;DHT22;21661;50.794;-1.066;2022-12-01T13:39:29;9.20;99.90
35559;DHT22;21661;50.794;-1.066;2022-12-01T13:44:42;9.30;99.90
35559;DHT22;21661;50.794;-1.066;2022-12-01T13:49:41;9.40;99.90
35559;DHT22;21661;50.794;-1.066;2022-12-01T13:52:24;9.40;99.90
35559;DHT22;21661;50.794;-1.066;2022-12-01T14:11:04;9.40;99.90
35559;DHT22;21661;50.794;-1.066;2022-12-01T14:13:44;9.40;99.90
35559;DHT22;21661;50.794;-1.066;2022-12-01T14:16:11;9.40;99.90
35559;DHT22;21661;50.794;-1.066;2022-12-01T14:18:40;9.40;99.90
35559;DHT22;21661;50.794;-1.066;2022-12-01T14:21:09;9.50;99.90
35559;DHT22;21661;50.794;-1.066;2022-12-01T14:23:38;9.40;99.90
35559;DHT22;21661;50.794;-1.066;2022-12-01T14:26:18;9.40;99.90
35559;DHT22;21661;50.794;-1.066;2022-12-01T14:32:03;9.50;99.90
35559;DHT22;21661;50.794;-1.066;2022-12-01T14:34:15;9.40;99.90
35559;DHT22;21661;50.794;-1.066;2022-12-01T14:36:48;9.40;99.90
35559;DHT22;21661;50.794;-1.066;2022-12-01T14:39:25;9.30;99.90
35559;DHT22;21661;50.794;-1.066;2022-12-01T14:41:56;9.40;99.90
35559;DHT22;21661;50.794;-1.066;2022-12-01T14:44:46;9.30;99.90
35559;DHT22;21661;50.794;-1.066;2022-12-01T14:47:21;9.30;99.90
35559;DHT22;21661;50.794;-1.066;2022-12-01T14:54:57;9.30;99.90
35559;DHT22;21661;50.794;-1.066;2022-12-01T14:57:36;9.30;99.90
35559;DHT22;21661;50.794;-1.066;2022-12-01T15:00:13;9.20;99.90
35559;DHT22;21661;50.794;-1.066;2022-12-01T15:02:41;9.20;99.90
35559;DHT22;21661;50.794;-1.066;2022-12-01T15:05:17;9.20;99.90
35559;DHT22;21661;50.794;-1.066;2022-12-01T15:07:56;9.20;99.90
35559;DHT22;21661;50.794;-1.066;2022-12-01T15:10:30;9.20;99.90
35559;DHT22;21661;50.794;-1.066;2022-12-01T15:13:11;9.20;99.90
35559;DHT22;21661;50.794;-1.066;2022-12-01T15:15:51;9.20;99.90
35559;DHT22;21661;50.794;-1.066;2022-12-01T15:18:23;9.20;99.90
35559;DHT22;21661;50.794;-1.066;2022-12-01T15:20:50;9.10;99.90
35559;DHT22;21661;50.794;-1.066;2022-12-01T15:23:20;9.10;99.90
35559;DHT22;21661;50.794;-1.066;2022-12-01T15:25:46;9.10;99.90
35559;DHT22;21661;50.794;-1.066;2022-12-01T15:28:30;9.00;99.90
35559;DHT22;21661;50.794;-1.066;2022-12-01T15:30:56;9.00;99.90
35559;DHT22;21661;50.794;-1.066;2022-12-01T15:33:31;9.00;99.90
35559;DHT22;21661;50.794;-1.066;2022-12-01T15:35:58;9.00;99.90
35559;DHT22;21661;50.794;-1.066;2022-12-01T15:38:33;8.90;99.90
35559;DHT22;21661;50.794;-1.066;2022-12-01T15:41:01;8.90;99.90
35559;DHT22;21661;50.794;-1.066;2022-12-01T15:43:34;8.90;99.90
35559;DHT22;21661;50.794;-1.066;2022-12-01T15:46:12;8.80;99.90
35559;DHT22;21661;50.794;-1.066;2022-12-01T15:48:37;8.70;99.90
35559;DHT22;21661;50.794;-1.066;2022-12-01T15:53:59;8.70;99.90
35559;DHT22;21661;50.794;-1.066;2022-12-01T15:56:33;8.60;99.90
35559;DHT22;21661;50.794;-1.066;2022-12-01T15:59:06;8.60;99.90
35559;DHT22;21661;50.794;-1.066;2022-12-01T16:01:33;8.50;99.90
35559;DHT22;21661;50.794;-1.066;2022-12-01T16:04:05;8.40;99.90
35559;DHT22;21661;50.794;-1.066;2022-12-01T16:06:38;8.40;99.90
35559;DHT22;21661;50.794;-1.066;2022-12-01T16:09:15;8.30;99.90
35559;DHT22;21661;50.794;-1.066;2022-12-01T16:14:34;8.20;99.90
35559;DHT22;21661;50.794;-1.066;2022-12-01T16:17:00;8.10;99.90
35559;DHT22;21661;50.794;-1.066;2022-12-01T16:19:28;8.10;99.90
35559;DHT22;21661;50.794;-1.066;2022-12-01T16:24:50;8.00;99.90
35559;DHT22;21661;50.794;-1.066;2022-12-01T16:27:28;7.90;99.90
35559;DHT22;21661;50.794;-1.066;2022-12-01T16:30:00;7.90;99.90
35559;DHT22;21661;50.794;-1.066;2022-12-01T16:32:36;7.80;99.90
35559;DHT22;21661;50.794;-1.066;2022-12-01T16:35:03;7.80;99.90
35559;DHT22;21661;50.794;-1.066;2022-12-01T16:37:29;7.70;99.90
35559;DHT22;21661;50.794;-1.066;2022-12-01T16:39:55;7.60;99.90
35559;DHT22;21661;50.794;-1.066;2022-12-01T16:42:23;7.60;99.90
35559;DHT22;21661;50.794;-1.066;2022-12-01T16:44:50;7.50;99.90
35559;DHT22;21661;50.794;-1.066;2022-12-01T16:47:18;7.50;99.90
35559;DHT22;21661;50.794;-1.066;2022-12-01T16:49:44;7.40;99.90
35559;DHT22;21661;50.794;-1.066;2022-12-01T16:52:10;7.40;99.90
35559;DHT22;21661;50.794;-1.066;2022-12-01T16:54:36;7.30;99.90
35559;DHT22;21661;50.794;-1.066;2022-12-01T16:57:02;7.30;99.90
35559;DHT22;21661;50.794;-1.066;2022-12-01T16:59:27;7.30;99.90
35559;DHT22;21661;50.794;-1.066;2022-12-01T17:01:53;7.20;99.90
35559;DHT22;21661;50.794;-1.066;2022-12-01T17:04:19;7.10;99.90
35559;DHT22;21661;50.794;-1.066;2022-12-01T17:06:44;7.10;99.90
35559;DHT22;21661;50.794;-1.066;2022-12-01T17:09:10;7.10;99.90
35559;DHT22;21661;50.794;-1.066;2022-12-01T17:11:35;7.00;99.90
35559;DHT22;21661;50.794;-1.066;2022-12-01T17:14:01;7.00;99.90
35559;DHT22;21661;50.794;-1.066;2022-12-01T17:16:27;6.90;99.90
35559;DHT22;21661;50.794;-1.066;2022-12-01T17:18:52;6.90;99.90
35559;DHT22;21661;50.794;-1.066;2022-12-01T17:21:18;6.80;99.90
35559;DHT22;21661;50.794;-1.066;2022-12-01T17:23:43;6.80;99.90
35559;DHT22;21661;50.794;-1.066;2022-12-01T17:26:15;6.80;99.90
35559;DHT22;21661;50.794;-1.066;2022-12-01T17:28:41;6.80;99.90
35559;DHT22;21661;50.794;-1.066;2022-12-01T17:31:07;6.70;99.90
35559;DHT22;21661;50.794;-1.066;2022-12-01T17:33:34;6.70;99.90
35559;DHT22;21661;50.794;-1.066;2022-12-01T17:36:05;6.60;99.90
35559;DHT22;21661;50.794;-1.066;2022-12-01T17:38:35;6.60;99.90
35559;DHT22;21661;50.794;-1.066;2022-12-01T17:41:04;6.50;99.90
35559;DHT22;21661;50.794;-1.066;2022-12-01T17:43:31;6.50;99.90
35559;DHT22;21661;50.794;-1.066;2022-12-01T17:45:57;6.50;99.90
35559;DHT22;21661;50.794;-1.066;2022-12-01T17:48:23;6.40;99.90
35559;DHT22;21661;50.794;-1.066;2022-12-01T17:50:49;6.40;99.90
35559;DHT22;21661;50.794;-1.066;2022-12-01T17:53:14;6.30;99.90
35559;DHT22;21661;50.794;-1.066;2022-12-01T17:55:40;6.40;99.90
35559;DHT22;21661;50.794;-1.066;2022-12-01T17:58:05;6.40;99.90
35559;DHT22;21661;50.794;-1.066;2022-12-01T18:00:31;6.30;99.90
35559;DHT22;21661;50.794;-1.066;2022-12-01T18:02:57;6.30;99.90
35559;DHT22;21661;50.794;-1.066;2022-12-01T18:05:22;6.30;99.90
35559;DHT22;21661;50.794;-1.066;2022-12-01T18:07:49;6.20;99.90
35559;DHT22;21661;50.794;-1.066;2022-12-01T18:10:16;6.10;99.90
35559;DHT22;21661;50.794;-1.066;2022-12-01T18:12:41;6.10;99.90
35559;DHT22;21661;50.794;-1.066;2022-12-01T18:15:07;6.00;99.90
35559;DHT22;21661;50.794;-1.066;2022-12-01T18:17:33;6.00;99.90
35559;DHT22;21661;50.794;-1.066;2022-12-01T18:19:59;5.90;99.90